createdAt,value
2018-07-24T00:03:40.733Z,101374.50
2018-07-24T00:08:42.927Z,101370.20
2018-07-24T00:13:45.077Z,101360.37
2018-07-24T00:18:47.238Z,101358.69
2018-07-24T00:23:49.358Z,101355.25
2018-07-24T00:28:51.519Z,101355.69
2018-07-24T00:33:53.914Z,101344.92
2018-07-24T00:38:56.041Z,101343.66
2018-07-24T00:43:58.222Z,101342.38
2018-07-24T00:49:00.397Z,101337.67
2018-07-24T00:54:02.550Z,101332.08
2018-07-24T00:59:05.005Z,101328.21
2018-07-24T01:04:07.233Z,101326.08
2018-07-24T01:09:10.545Z,101333.83
2018-07-24T01:14:12.730Z,101331.21
2018-07-24T01:19:14.852Z,101326.62
2018-07-24T01:24:16.992Z,101332.63
2018-07-24T01:29:19.198Z,101329.15
2018-07-24T01:34:21.337Z,101330.52
2018-07-24T01:39:23.448Z,101332.23
2018-07-24T01:44:25.558Z,101327.95
2018-07-24T01:49:27.683Z,101326.66
2018-07-24T01:54:29.797Z,101323.23
2018-07-24T01:59:31.899Z,101318.52
2018-07-24T02:04:34.072Z,101312.48
2018-07-24T02:09:36.251Z,101313.38
2018-07-24T02:14:38.377Z,101312.95
2018-07-24T02:19:40.554Z,101319.83
2018-07-24T02:24:43.056Z,101313.42
2018-07-24T02:29:45.282Z,101318.95
2018-07-24T02:34:47.427Z,101315.94
2018-07-24T02:39:49.546Z,101315.11
2018-07-24T02:44:51.717Z,101316.00
2018-07-24T02:49:53.858Z,101312.13
2018-07-24T02:54:56.007Z,101309.09
2018-07-24T02:59:58.163Z,101307.36
2018-07-24T03:05:00.350Z,101310.36
2018-07-24T03:10:02.604Z,101308.68
2018-07-24T03:15:04.888Z,101310.41
2018-07-24T03:20:07.072Z,101313.87
2018-07-24T03:25:09.234Z,101313.03
2018-07-24T03:30:11.432Z,101317.30
2018-07-24T03:35:13.590Z,101316.86
2018-07-24T03:40:15.776Z,101317.31
2018-07-24T03:45:17.966Z,101314.70
2018-07-24T03:50:20.160Z,101316.45
2018-07-24T03:55:22.347Z,101323.73
2018-07-24T04:00:24.505Z,101319.83
2018-07-24T04:05:26.692Z,101319.41
2018-07-24T04:10:28.864Z,101324.10
2018-07-24T04:15:31.025Z,101324.09
2018-07-24T04:20:33.171Z,101318.89
2018-07-24T04:25:35.289Z,101320.59
2018-07-24T04:30:37.465Z,101314.23
2018-07-24T04:35:39.565Z,101313.34
2018-07-24T04:40:41.709Z,101316.69
2018-07-24T04:45:44.155Z,101324.38
2018-07-24T04:50:46.350Z,101319.25
2018-07-24T04:55:48.491Z,101319.59
2018-07-24T05:00:50.638Z,101319.14
2018-07-24T05:05:52.818Z,101325.09
2018-07-24T05:10:55.037Z,101316.77
2018-07-24T05:15:57.194Z,101318.81
2018-07-24T05:20:59.352Z,101316.53
2018-07-24T05:26:01.490Z,101314.73
2018-07-24T05:31:03.651Z,101317.66
2018-07-24T05:36:05.846Z,101305.53
2018-07-24T05:41:08.028Z,101313.62
2018-07-24T05:46:10.232Z,101314.94
2018-07-24T05:51:12.431Z,101321.73
2018-07-24T05:56:14.602Z,101328.23
2018-07-24T06:01:16.826Z,101324.52
2018-07-24T06:06:19.059Z,101327.19
2018-07-24T06:11:21.263Z,101329.02
2018-07-24T06:16:23.430Z,101330.51
2018-07-24T06:21:25.620Z,101337.17
2018-07-24T06:26:27.762Z,101335.44
2018-07-24T06:31:30.007Z,101336.38
2018-07-24T06:36:32.181Z,101337.77
2018-07-24T06:41:34.381Z,101332.45
2018-07-24T06:46:36.902Z,101332.30
2018-07-24T06:51:39.166Z,101333.47
2018-07-24T06:56:41.353Z,101329.11
2018-07-24T07:01:43.523Z,101331.73
2018-07-24T07:06:45.705Z,101331.60
2018-07-24T07:11:47.984Z,101331.01
2018-07-24T07:16:50.149Z,101334.55
2018-07-24T07:21:52.350Z,101331.45
2018-07-24T07:26:54.536Z,101325.98
2018-07-24T07:31:56.720Z,101326.39
2018-07-24T07:36:59.261Z,101318.88
2018-07-24T07:42:01.431Z,101315.18
2018-07-24T07:47:03.604Z,101322.02
2018-07-24T07:52:05.937Z,101317.19
2018-07-24T07:57:08.100Z,101311.98
2018-07-24T08:02:10.287Z,101307.21
2018-07-24T08:07:13.296Z,101300.82
2018-07-24T08:12:15.561Z,101302.27
2018-07-24T08:17:18.233Z,101297.28
2018-07-24T08:22:20.471Z,101288.26
2018-07-24T08:27:23.223Z,101291.98
2018-07-24T08:32:25.413Z,101285.68
2018-07-24T08:37:28.424Z,101290.19
2018-07-24T08:42:30.624Z,101291.09
2018-07-24T08:47:32.776Z,101289.36
2018-07-24T08:52:34.913Z,101288.07
2018-07-24T08:57:37.106Z,101289.47
2018-07-24T09:02:39.451Z,101289.98
2018-07-24T09:07:41.636Z,101291.12
2018-07-24T09:12:43.807Z,101291.42
2018-07-24T09:17:46.083Z,101285.20
2018-07-24T09:22:48.293Z,101295.08
2018-07-24T09:27:51.194Z,101302.09
2018-07-24T09:32:53.444Z,101295.72
2018-07-24T09:37:55.600Z,101291.69
2018-07-24T09:42:57.834Z,101284.50
2018-07-24T09:48:00.067Z,101286.79
2018-07-24T09:53:02.359Z,101275.30
2018-07-24T09:58:04.636Z,101274.23
2018-07-24T10:03:06.797Z,101272.95
2018-07-24T10:08:09.005Z,101272.35
2018-07-24T10:13:11.275Z,101273.31
2018-07-24T10:18:13.383Z,101276.28
2018-07-24T10:23:15.624Z,101267.84
2018-07-24T10:28:17.795Z,101271.86
2018-07-24T10:33:20.015Z,101269.06
2018-07-24T10:38:22.316Z,101263.63
2018-07-24T10:43:24.486Z,101264.53
2018-07-24T10:48:26.681Z,101247.88
2018-07-24T10:53:28.865Z,101248.58
2018-07-24T10:58:31.069Z,101255.85
2018-07-24T11:03:33.281Z,101240.28
2018-07-24T11:08:35.461Z,101244.02
2018-07-24T11:13:37.695Z,101230.08
2018-07-24T11:18:39.887Z,101232.96
2018-07-24T11:23:42.099Z,101229.41
2018-07-24T11:28:44.256Z,101230.37
2018-07-24T11:33:46.461Z,101221.03
2018-07-24T11:38:48.643Z,101223.17
2018-07-24T11:43:51.240Z,101216.55
2018-07-24T11:48:53.423Z,101216.11
2018-07-24T11:53:55.634Z,101208.61
2018-07-24T11:58:57.881Z,101207.52
2018-07-24T12:04:00.063Z,101205.16
2018-07-24T12:09:02.340Z,101201.27
2018-07-24T12:14:04.604Z,101201.01
2018-07-24T12:19:06.768Z,101196.98
2018-07-24T12:24:08.959Z,101188.47
2018-07-24T12:29:11.313Z,101176.91
2018-07-24T12:34:13.477Z,101178.58
2018-07-24T12:39:15.652Z,101175.87
2018-07-24T12:44:17.819Z,101170.38
2018-07-24T12:49:20.151Z,101165.41
2018-07-24T12:54:22.307Z,101161.09
2018-07-24T12:59:24.517Z,101161.77
2018-07-24T13:04:26.747Z,101153.14
2018-07-24T13:09:28.884Z,101144.73
2018-07-24T13:14:31.086Z,101137.72
2018-07-24T13:19:33.283Z,101141.19
2018-07-24T13:24:35.424Z,101136.04
2018-07-24T13:29:37.602Z,101124.78
2018-07-24T13:34:39.786Z,101124.22
2018-07-24T13:39:41.955Z,101125.36
2018-07-24T13:44:44.191Z,101117.39
2018-07-24T13:49:46.378Z,101123.67
2018-07-24T13:54:48.840Z,101122.72
2018-07-24T13:59:50.984Z,101116.08
2018-07-24T14:04:53.171Z,101112.30
2018-07-24T14:09:55.390Z,101107.86
2018-07-24T14:14:57.603Z,101104.42
2018-07-24T14:19:59.804Z,101104.92
2018-07-24T14:25:01.973Z,101103.39
2018-07-24T14:30:04.711Z,101097.66
2018-07-24T14:35:06.897Z,101105.50
2018-07-24T14:40:09.084Z,101101.54
2018-07-24T14:45:11.218Z,101105.80
2018-07-24T14:50:13.390Z,101106.64
2018-07-24T14:55:15.589Z,101117.39
2018-07-24T15:00:17.774Z,101113.73
2018-07-24T15:05:19.945Z,101107.94
2018-07-24T15:10:22.086Z,101104.30
2018-07-24T15:15:24.315Z,101111.55
2018-07-24T15:20:26.495Z,101114.66
2018-07-24T15:25:28.663Z,101105.53
2018-07-24T15:30:30.844Z,101111.33
2018-07-24T15:35:33.019Z,101111.28
2018-07-24T15:40:35.215Z,101103.27
2018-07-24T15:45:37.770Z,101107.75
2018-07-24T15:50:39.919Z,101113.95
2018-07-24T15:55:43.480Z,101110.91
2018-07-24T16:00:45.695Z,101106.89
2018-07-24T16:05:47.926Z,101106.09
2018-07-24T16:10:50.155Z,101111.67
2018-07-24T16:15:52.425Z,101122.06
2018-07-24T16:20:54.606Z,101117.56
2018-07-24T16:25:56.789Z,101113.56
2018-07-24T16:30:59.043Z,101115.43
2018-07-24T16:36:01.329Z,101113.23
2018-07-24T16:41:03.552Z,101111.95
2018-07-24T16:46:05.776Z,101108.83
2018-07-24T16:51:07.998Z,101101.58
2018-07-24T16:56:10.247Z,101098.48
2018-07-24T17:01:12.413Z,101096.42
2018-07-24T17:06:14.644Z,101098.17
2018-07-24T17:11:17.608Z,101099.78
2018-07-24T17:16:19.845Z,101096.80
2018-07-24T17:21:22.008Z,101095.26
2018-07-24T17:26:24.304Z,101095.65
2018-07-24T17:31:26.378Z,101095.73
2018-07-24T17:36:28.574Z,101092.34
2018-07-24T17:41:30.740Z,101092.58
2018-07-24T17:46:33.071Z,101098.20
2018-07-24T17:51:35.223Z,101098.56
2018-07-24T17:56:37.622Z,101099.52
2018-07-24T18:01:39.817Z,101105.63
2018-07-24T18:06:42.182Z,101109.45
2018-07-24T18:11:44.353Z,101108.56
2018-07-24T18:16:46.572Z,101121.66
2018-07-24T18:21:48.786Z,101121.43
2018-07-24T18:26:51.011Z,101126.68
2018-07-24T18:31:53.233Z,101129.55
2018-07-24T18:36:55.527Z,101124.27
2018-07-24T18:41:57.721Z,101128.52
2018-07-24T18:47:00.014Z,101125.48
2018-07-24T18:52:02.229Z,101133.25
2018-07-24T18:57:04.523Z,101128.09
2018-07-24T19:02:06.754Z,101138.77
2018-07-24T19:07:08.983Z,101135.84
2018-07-24T19:12:11.217Z,101139.58
2018-07-24T19:17:13.509Z,101142.06
2018-07-24T19:22:16.260Z,101141.47
2018-07-24T19:27:18.965Z,101147.23
2018-07-24T19:32:22.318Z,101155.60
2018-07-24T19:37:24.987Z,101155.84
2018-07-24T19:42:27.678Z,101157.83
2018-07-24T19:47:30.199Z,101156.27
2018-07-24T19:52:33.063Z,101160.47
2018-07-24T19:57:35.551Z,101161.50
2018-07-24T20:02:37.964Z,101164.73
2018-07-24T20:07:40.503Z,101166.70
2018-07-24T20:12:42.809Z,101168.28
2018-07-24T20:17:45.184Z,101172.13
2018-07-24T20:22:47.851Z,101179.95
2018-07-24T20:27:50.253Z,101179.72
2018-07-24T20:32:52.720Z,101176.07
2018-07-24T20:37:54.975Z,101181.12
2018-07-24T20:42:57.215Z,101172.36
2018-07-24T20:47:59.413Z,101177.34
2018-07-24T20:53:01.631Z,101184.69
2018-07-24T20:58:03.881Z,101180.45
2018-07-24T21:03:06.180Z,101182.94
2018-07-24T21:08:08.996Z,101184.34
2018-07-24T21:13:14.198Z,101180.55
2018-07-24T21:18:16.448Z,101184.81
2018-07-24T21:23:18.663Z,101184.44
2018-07-24T21:28:20.856Z,101189.58
2018-07-24T21:33:23.655Z,101181.41
2018-07-24T21:38:25.875Z,101187.61
2018-07-24T21:43:28.057Z,101188.09
2018-07-24T21:48:30.261Z,101192.98
2018-07-24T21:53:32.475Z,101191.37
2018-07-24T21:58:35.868Z,101190.07
2018-07-24T22:03:38.114Z,101191.07
2018-07-24T22:08:40.298Z,101192.66
2018-07-24T22:13:42.467Z,101193.61
2018-07-24T22:18:44.696Z,101185.91
2018-07-24T22:23:46.987Z,101190.88
2018-07-24T22:28:49.163Z,101189.10
2018-07-24T22:33:51.355Z,101185.36
2018-07-24T22:38:53.542Z,101184.02
2018-07-24T22:43:55.708Z,101186.05
2018-07-24T22:48:57.965Z,101189.37
2018-07-24T22:54:00.171Z,101187.91
2018-07-24T22:59:02.338Z,101187.17
2018-07-24T23:04:04.858Z,101188.03
2018-07-24T23:09:08.175Z,101191.45
2018-07-24T23:14:10.351Z,101189.80
2018-07-24T23:19:12.533Z,101187.73
2018-07-24T23:24:14.805Z,101187.69
2018-07-24T23:29:17.005Z,101192.95
2018-07-24T23:34:19.234Z,101190.28
2018-07-24T23:39:21.459Z,101188.29
2018-07-24T23:44:23.622Z,101190.61
2018-07-24T23:49:25.759Z,101185.17
2018-07-24T23:54:27.894Z,101184.86
2018-07-24T23:59:30.039Z,101190.38
